Time;durP1;ratioP1;P1;durP2;ratioP2;P2;SDS_P1;SDS_P2;PMS_P1;PMS_P2;Temp;Humidity;BMP_temperature;BMP_pressure;BME280_temperature;BME280_humidity;BME280_pressure;Samples;Min_cycle;Max_cycle;Signal;HPM_P1;HPM_P2
2022/01/25 00:31:17;;;;;;;72.43;27.15;;;;;;;-2.02;100.00;98169.97;5042161;28;20037;-66
2022/01/25 00:33:46;;;;;;;65.20;26.55;;;;;;;-2.00;100.00;98175.91;5043662;28;20041;-65
2022/01/25 00:36:15;;;;;;;64.30;27.67;;;;;;;-2.22;100.00;98187.41;5034788;28;20041;-66
2022/01/25 00:38:41;;;;;;;69.63;26.75;;;;;;;-2.19;100.00;98178.06;5043288;28;20033;-66
2022/01/25 00:41:06;;;;;;;77.57;28.92;;;;;;;-2.23;100.00;98175.06;5036240;28;20088;-63
2022/01/25 00:43:32;;;;;;;75.13;30.50;;;;;;;-2.30;100.00;98182.50;5040133;28;20044;-66
2022/01/25 00:46:02;;;;;;;73.18;29.42;;;;;;;-2.28;100.00;98175.00;5042076;28;20735;-66
2022/01/25 00:48:41;;;;;;;77.53;28.10;;;;;;;-2.28;100.00;98177.69;5037921;28;20044;-66
2022/01/25 00:56:29;;;;;;;79.05;29.27;;;;;;;-2.24;100.00;98167.25;5035679;28;20736;-65
2022/01/25 00:58:55;;;;;;;70.43;26.17;;;;;;;-2.23;100.00;98167.03;5041737;28;20099;-66
2022/01/25 01:01:21;;;;;;;75.22;29.55;;;;;;;-2.15;100.00;98160.41;5035775;28;20147;-67
2022/01/25 01:03:47;;;;;;;72.78;27.45;;;;;;;-2.07;100.00;98160.00;5042326;28;20106;-67
2022/01/25 01:06:14;;;;;;;69.10;27.17;;;;;;;-2.01;100.00;98163.56;5036422;28;20029;-67
2022/01/25 01:08:40;;;;;;;75.63;29.15;;;;;;;-2.09;100.00;98169.34;5030137;28;20041;-67
2022/01/25 01:11:09;;;;;;;77.20;29.83;;;;;;;-2.19;100.00;98178.06;5022373;28;20041;-66
2022/01/25 01:13:47;;;;;;;79.77;30.23;;;;;;;-2.22;100.00;98175.88;5026031;28;20080;-66
2022/01/25 01:30:12;;;;;;;73.57;28.60;;;;;;;-1.90;100.00;98176.03;5041958;28;20037;-67
2022/01/25 01:48:10;;;;;;;64.78;25.77;;;;;;;-1.45;100.00;98182.22;5036394;28;20433;-65
2022/01/25 01:50:38;;;;;;;61.53;24.77;;;;;;;-1.74;100.00;98179.72;5044075;28;20048;-67
2022/01/25 01:53:06;;;;;;;61.67;25.73;;;;;;;-1.76;100.00;98179.16;5032159;28;20778;-62
2022/01/25 01:55:33;;;;;;;70.18;26.33;;;;;;;-1.78;100.00;98171.34;5037814;28;20132;-66
2022/01/25 01:57:59;;;;;;;68.85;26.42;;;;;;;-1.72;100.00;98177.59;5041727;28;20041;-67
2022/01/25 02:00:31;;;;;;;74.93;28.45;;;;;;;-1.82;100.00;98178.31;5036518;28;20049;-66
2022/01/25 02:02:57;;;;;;;70.13;28.50;;;;;;;-1.85;100.00;98168.03;5042071;28;20047;-66
2022/01/25 02:05:23;;;;;;;75.90;28.90;;;;;;;-1.86;100.00;98168.28;5036183;28;20593;-65
2022/01/25 02:07:48;;;;;;;66.72;27.67;;;;;;;-1.94;100.00;98175.72;5025825;28;20064;-66
2022/01/25 02:10:14;;;;;;;72.20;28.20;;;;;;;-1.89;100.00;98171.47;5016620;28;20111;-67
2022/01/25 02:12:41;;;;;;;73.30;28.42;;;;;;;-1.78;100.00;98163.31;5036666;28;20402;-67
2022/01/25 02:15:07;;;;;;;73.82;28.98;;;;;;;-1.62;100.00;98172.34;5015431;28;20166;-66
2022/01/25 02:23:18;;;;;;;64.82;26.10;;;;;;;-1.07;100.00;98175.06;5018436;28;20048;-67
2022/01/25 02:25:49;;;;;;;61.10;25.88;;;;;;;-0.96;100.00;98176.75;5040434;28;20037;-67
2022/01/25 02:28:17;;;;;;;66.00;26.42;;;;;;;-0.88;100.00;98167.41;5035242;28;20102;-67
2022/01/25 02:30:44;;;;;;;65.22;26.55;;;;;;;-1.12;100.00;98165.06;5040457;28;20445;-67
2022/01/25 02:33:09;;;;;;;59.22;25.85;;;;;;;-1.09;100.00;98164.56;5047659;28;20045;-66
2022/01/25 02:35:36;;;;;;;66.97;26.50;;;;;;;-1.24;100.00;98167.91;5038569;28;20044;-67
2022/01/25 02:38:02;;;;;;;62.80;25.60;;;;;;;-1.52;100.00;98160.09;5039040;28;20041;-64
2022/01/25 02:40:28;;;;;;;62.28;25.20;;;;;;;-1.30;100.00;98163.53;5017773;28;20056;-64
2022/01/25 02:42:53;;;;;;;66.32;27.42;;;;;;;-1.12;100.00;98158.88;5024726;28;20044;-67
2022/01/25 02:45:19;;;;;;;66.35;26.83;;;;;;;-1.10;100.00;98159.44;5034480;28;20052;-67
2022/01/25 02:50:30;;;;;;;68.50;26.95;;;;;;;-1.34;100.00;98162.44;5043997;28;20044;-67
2022/01/25 02:52:55;;;;;;;62.92;26.35;;;;;;;-1.16;100.00;98162.06;5040380;28;20490;-68
2022/01/25 02:55:21;;;;;;;69.20;27.80;;;;;;;-1.08;100.00;98160.81;5035149;28;20052;-67
2022/01/25 02:57:47;;;;;;;72.47;28.02;;;;;;;-1.43;100.00;98150.50;5040941;28;20052;-68
2022/01/25 03:00:13;;;;;;;77.05;28.98;;;;;;;-1.54;100.00;98160.34;5031080;28;20124;-66
2022/01/25 03:02:39;;;;;;;74.43;29.55;;;;;;;-1.60;100.00;98154.09;5031309;28;20432;-66
2022/01/25 03:05:06;;;;;;;79.70;29.83;;;;;;;-1.50;100.00;98156.06;5026083;28;20102;-64
2022/01/25 03:07:33;;;;;;;82.05;30.08;;;;;;;-1.54;100.00;98157.66;5044514;28;20132;-67
2022/01/25 03:09:59;;;;;;;73.40;28.17;;;;;;;-1.58;100.00;98154.66;5032830;28;20041;-65
2022/01/25 03:12:43;;;;;;;80.45;29.52;;;;;;;-1.65;100.00;98154.03;5050767;28;20033;-66
2022/01/25 03:15:26;;;;;;;73.93;29.08;;;;;;;-1.57;100.00;98158.97;5031164;28;20587;-67
2022/01/25 03:17:57;;;;;;;79.35;30.33;;;;;;;-1.52;100.00;98150.16;5032279;28;20143;-65
2022/01/25 03:20:36;;;;;;;75.05;29.92;;;;;;;-1.59;100.00;98150.34;5013205;28;20120;-66
2022/01/25 03:23:16;;;;;;;79.28;31.05;;;;;;;-1.70;100.00;98151.28;5023010;28;20096;-63
2022/01/25 03:25:41;;;;;;;75.03;29.13;;;;;;;-1.71;100.00;98152.38;5052813;28;20047;-66
2022/01/25 03:28:07;;;;;;;88.22;30.73;;;;;;;-1.72;100.00;98148.03;5033077;28;20123;-64
2022/01/25 03:30:32;;;;;;;94.28;32.72;;;;;;;-1.67;100.00;98161.53;5034664;28;20056;-66
2022/01/25 03:32:58;;;;;;;90.65;31.58;;;;;;;-1.61;100.00;98157.84;5031687;28;20099;-65
2022/01/25 03:35:23;;;;;;;86.18;32.80;;;;;;;-1.57;100.00;98152.78;5023213;28;20767;-66
2022/01/25 03:37:48;;;;;;;84.97;31.52;;;;;;;-1.59;100.00;98153.03;5037632;28;20453;-66
2022/01/25 03:40:14;;;;;;;81.43;30.60;;;;;;;-1.29;100.00;98142.88;5025516;28;20102;-64
2022/01/25 03:42:40;;;;;;;84.85;33.30;;;;;;;-1.13;100.00;98152.69;5031641;28;20041;-65
2022/01/25 03:45:07;;;;;;;83.20;32.05;;;;;;;-1.07;100.00;98148.97;5035078;28;20520;-65
2022/01/25 03:47:45;;;;;;;77.95;30.45;;;;;;;-1.01;100.00;98145.28;5048498;28;20098;-66
2022/01/25 03:50:11;;;;;;;82.07;31.63;;;;;;;-1.18;100.00;98149.94;5012750;28;20041;-67
2022/01/25 03:52:37;;;;;;;74.53;31.25;;;;;;;-1.12;100.00;98140.06;5018811;28;20512;-66
2022/01/25 03:55:05;;;;;;;80.82;31.10;;;;;;;-1.21;100.00;98137.81;5027617;28;20048;-64
2022/01/25 03:57:31;;;;;;;92.15;33.42;;;;;;;-1.29;100.00;98137.50;5019987;28;20053;-66
2022/01/25 03:59:59;;;;;;;82.13;31.35;;;;;;;-1.06;100.00;98139.00;5024032;28;20052;-64
2022/01/25 04:02:27;;;;;;;74.63;29.00;;;;;;;-0.78;100.00;98140.59;5026080;28;20943;-66
2022/01/25 04:04:52;;;;;;;81.60;32.15;;;;;;;-0.86;100.00;98147.28;5034682;28;20052;-67
2022/01/25 04:07:27;;;;;;;81.13;29.80;;;;;;;-1.10;100.00;98141.41;5030775;28;20041;-70
2022/01/25 04:09:52;;;;;;;85.22;33.38;;;;;;;-1.07;100.00;98142.78;5043441;28;20176;-68
2022/01/25 04:12:18;;;;;;;85.95;31.40;;;;;;;-1.06;100.00;98136.31;5030403;28;20131;-68
2022/01/25 04:14:43;;;;;;;82.57;31.02;;;;;;;-1.29;100.00;98146.34;5031612;28;20048;-67
2022/01/25 04:17:12;;;;;;;88.05;33.40;;;;;;;-1.44;100.00;98140.81;5027867;28;20045;-68
2022/01/25 04:19:47;;;;;;;88.10;34.27;;;;;;;-1.42;100.00;98139.50;5039630;28;20049;-67
2022/01/25 04:25:13;;;;;;;79.93;32.53;;;;;;;-1.36;100.00;98135.78;5036182;28;20398;-67
2022/01/25 04:27:38;;;;;;;85.70;32.33;;;;;;;-1.36;100.00;98140.38;5034105;28;20422;-67
2022/01/25 04:30:05;;;;;;;86.50;32.85;;;;;;;-1.41;100.00;98140.31;5033336;28;20049;-64
2022/01/25 04:32:42;;;;;;;88.70;32.08;;;;;;;-1.48;100.00;98132.44;5031317;28;20529;-68
2022/01/25 04:35:13;;;;;;;88.07;34.22;;;;;;;-1.41;100.00;98141.13;5035619;28;20055;-67
2022/01/25 04:51:37;;;;;;;89.38;35.28;;;;;;;-1.43;100.00;98135.19;5012157;28;20052;-67
2022/01/25 04:54:15;;;;;;;88.72;33.20;;;;;;;-1.23;100.00;98133.78;5015344;28;20398;-64
2022/01/25 05:02:00;;;;;;;89.18;32.20;;;;;;;-1.17;100.00;98143.50;5046561;28;20072;-67
2022/01/25 05:04:31;;;;;;;82.40;31.63;;;;;;;-1.16;100.00;98137.88;5034108;28;20056;-67
2022/01/25 05:07:05;;;;;;;82.95;33.67;;;;;;;-1.19;100.00;98141.09;5031166;28;20042;-67
2022/01/25 05:09:33;;;;;;;84.10;32.83;;;;;;;-1.17;100.00;98136.25;5024176;28;20141;-66
2022/01/25 05:11:59;;;;;;;80.40;31.45;;;;;;;-1.34;100.00;98127.47;5041287;28;20045;-65
2022/01/25 05:14:31;;;;;;;86.25;31.35;;;;;;;-1.30;100.00;98130.47;5031503;28;20852;-65
2022/01/25 05:17:00;;;;;;;91.70;32.92;;;;;;;-1.06;100.00;98130.94;5032047;28;20048;-65
2022/01/25 05:24:36;;;;;;;80.93;30.83;;;;;;;-0.72;100.00;98136.91;5038053;28;20061;-68
2022/01/25 05:27:03;;;;;;;72.05;29.08;;;;;;;-0.69;100.00;98141.75;5040130;28;20048;-64
2022/01/25 05:29:29;;;;;;;73.47;29.02;;;;;;;-0.68;100.00;98137.19;5033440;28;20106;-67
2022/01/25 05:31:55;;;;;;;84.75;31.33;;;;;;;-0.87;100.00;98134.06;5037446;28;20040;-67
2022/01/25 05:34:20;;;;;;;81.55;31.92;;;;;;;-0.95;100.00;98132.69;5034351;28;20041;-65
2022/01/25 05:36:46;;;;;;;81.55;33.30;;;;;;;-1.11;100.00;98134.41;5038606;28;20037;-68
2022/01/25 05:39:15;;;;;;;87.70;33.03;;;;;;;-1.25;100.00;98142.09;5037531;28;20049;-65
2022/01/25 05:41:42;;;;;;;91.68;33.20;;;;;;;-1.27;100.00;98138.03;5031641;28;20502;-67
2022/01/25 05:44:54;;;;;;;91.70;33.25;;;;;;;-1.35;100.00;98137.44;5023487;28;20036;-63
2022/01/25 05:49:25;;;;;;;86.35;31.42;;;;;;;-1.21;100.00;98123.56;5033039;28;20106;-66
2022/01/25 05:51:51;;;;;;;92.45;33.60;;;;;;;-1.09;100.00;98123.41;5039072;28;20040;-67
2022/01/25 05:54:16;;;;;;;86.35;32.92;;;;;;;-1.00;100.00;98119.19;5033172;28;20049;-65
2022/01/25 05:56:42;;;;;;;85.43;32.55;;;;;;;-0.91;100.00;98124.91;5046978;28;20078;-67
2022/01/25 05:59:08;;;;;;;80.97;31.88;;;;;;;-0.80;100.00;98124.72;5027294;28;20041;-67
2022/01/25 06:01:35;;;;;;;85.35;30.60;;;;;;;-0.79;100.00;98123.66;5027230;28;20041;-66
2022/01/25 06:04:00;;;;;;;81.90;31.48;;;;;;;-0.71;100.00;98124.25;5028869;28;20069;-66
2022/01/25 06:06:27;;;;;;;81.28;30.50;;;;;;;-0.64;100.00;98127.53;5025744;28;20175;-67
2022/01/25 06:08:53;;;;;;;78.18;31.25;;;;;;;-0.59;100.00;98124.88;5050289;28;20116;-66
2022/01/25 06:11:20;;;;;;;74.43;30.52;;;;;;;-0.62;100.00;98126.19;5032443;28;20057;-65
2022/01/25 06:13:46;;;;;;;83.35;31.25;;;;;;;-0.53;100.00;98131.91;5035428;28;20041;-65
2022/01/25 06:16:11;;;;;;;78.43;31.77;;;;;;;-0.58;100.00;98134.56;5028539;28;20044;-67
2022/01/25 06:18:37;;;;;;;75.45;29.58;;;;;;;-0.66;100.00;98126.97;5036930;28;20117;-67
2022/01/25 06:21:05;;;;;;;78.43;28.75;;;;;;;-0.64;100.00;98144.47;5031455;28;20379;-62
2022/01/25 06:23:30;;;;;;;83.65;32.25;;;;;;;-0.68;100.00;98129.91;5033461;28;20140;-65
2022/01/25 06:25:56;;;;;;;79.75;31.27;;;;;;;-0.70;100.00;98137.44;5035480;28;20048;-66
2022/01/25 06:28:21;;;;;;;79.60;28.92;;;;;;;-0.64;100.00;98131.03;5031650;28;20551;-67
2022/01/25 06:30:46;;;;;;;85.10;30.75;;;;;;;-0.83;100.00;98138.69;5035155;28;20525;-67
2022/01/25 06:33:12;;;;;;;86.75;31.70;;;;;;;-0.93;100.00;98143.19;5035218;28;20110;-65
2022/01/25 06:35:38;;;;;;;96.50;32.42;;;;;;;-0.85;100.00;98140.81;5029044;28;20042;-66
2022/01/25 06:38:04;;;;;;;92.90;30.98;;;;;;;-0.83;100.00;98141.38;5020924;28;20048;-63
2022/01/25 06:40:29;;;;;;;91.30;31.73;;;;;;;-0.70;100.00;98142.00;5032334;28;20057;-65
2022/01/25 06:42:55;;;;;;;86.90;30.58;;;;;;;-0.47;100.00;98148.88;5029562;28;20037;-66
2022/01/25 06:45:24;;;;;;;91.90;31.55;;;;;;;-0.36;100.00;98145.22;5047873;28;20492;-66
2022/01/25 06:47:51;;;;;;;81.82;29.20;;;;;;;-0.34;100.00;98153.00;5048259;28;20435;-67
2022/01/25 06:50:19;;;;;;;83.07;32.47;;;;;;;-0.24;100.00;98163.84;5032520;28;20045;-66
2022/01/25 06:52:45;;;;;;;82.93;30.02;;;;;;;-0.14;100.00;98160.41;5038070;28;20037;-66
2022/01/25 06:55:14;;;;;;;79.32;30.38;;;;;;;-0.25;100.00;98159.53;5025909;28;20065;-66
2022/01/25 06:57:39;;;;;;;77.60;28.52;;;;;;;-0.06;100.00;98165.28;5038906;28;20075;-65
2022/01/25 07:00:10;;;;;;;85.00;29.98;;;;;;;-0.11;100.00;98165.25;5032234;28;20136;-65
2022/01/25 07:02:35;;;;;;;77.18;29.40;;;;;;;-0.42;100.00;98170.47;5041931;28;20052;-63
2022/01/25 07:05:01;;;;;;;78.40;28.35;;;;;;;-0.51;100.00;98162.06;5034420;28;20072;-65
2022/01/25 07:07:27;;;;;;;79.28;27.88;;;;;;;-0.50;100.00;98165.56;5028507;28;20042;-65
2022/01/25 07:09:52;;;;;;;88.75;29.92;;;;;;;-0.54;100.00;98165.28;5033747;28;20049;-65
2022/01/25 07:12:18;;;;;;;75.95;26.85;;;;;;;-0.52;100.00;98168.53;5036692;28;20055;-66
2022/01/25 07:14:43;;;;;;;79.40;28.58;;;;;;;-0.57;100.00;98171.16;5041887;28;20041;-64
2022/01/25 07:17:09;;;;;;;78.85;27.92;;;;;;;-0.52;100.00;98165.00;5033453;28;20037;-64
2022/01/25 07:19:34;;;;;;;77.40;26.75;;;;;;;-0.55;100.00;98165.53;5036440;28;20056;-66
2022/01/25 07:22:00;;;;;;;79.30;28.05;;;;;;;-0.54;100.00;98173.34;5029807;28;20029;-64
2022/01/25 07:24:25;;;;;;;76.70;27.27;;;;;;;-0.56;100.00;98170.09;5014257;28;20075;-64
2022/01/25 07:26:50;;;;;;;82.47;28.23;;;;;;;-0.52;100.00;98170.38;5001864;28;20125;-66
2022/01/25 07:29:16;;;;;;;81.88;29.08;;;;;;;-0.37;100.00;98169.69;5013280;28;20381;-65
2022/01/25 07:31:45;;;;;;;83.07;29.33;;;;;;;-0.24;100.00;98178.09;5020541;28;20136;-65
2022/01/25 07:34:11;;;;;;;79.68;27.50;;;;;;;-0.20;100.00;98181.94;5013136;28;20045;-64
2022/01/25 07:36:38;;;;;;;78.35;27.85;;;;;;;-0.51;100.00;98178.19;5018835;28;20401;-64
2022/01/25 07:39:05;;;;;;;81.07;28.35;;;;;;;-0.90;100.00;98170.38;5014378;28;20107;-62
2022/01/25 07:41:31;;;;;;;81.35;29.35;;;;;;;-0.84;100.00;98182.78;5029107;28;20057;-65
2022/01/25 07:43:59;;;;;;;71.38;28.45;;;;;;;-0.81;100.00;98184.16;5041522;28;20052;-67
2022/01/25 07:46:24;;;;;;;84.18;28.60;;;;;;;-1.06;100.00;98184.72;5012636;28;20029;-65
2022/01/25 07:48:50;;;;;;;79.90;28.42;;;;;;;-1.18;100.00;98179.53;5020687;28;20041;-65
2022/01/25 07:51:15;;;;;;;83.75;27.67;;;;;;;-1.04;100.00;98180.75;5013496;28;20110;-67
2022/01/25 07:53:41;;;;;;;77.97;27.27;;;;;;;-0.93;100.00;98181.66;5019929;28;20368;-66
2022/01/25 07:56:07;;;;;;;81.43;29.48;;;;;;;-1.01;100.00;98182.09;5016222;28;20498;-63
2022/01/25 07:58:32;;;;;;;80.03;28.20;;;;;;;-1.10;100.00;98189.81;5019746;28;20037;-65
2022/01/25 08:00:58;;;;;;;85.75;28.65;;;;;;;-1.11;100.00;98190.88;5020382;28;20044;-67
2022/01/25 08:03:24;;;;;;;83.65;28.40;;;;;;;-1.11;100.00;98190.88;5017792;28;20791;-67
2022/01/25 08:05:50;;;;;;;77.57;27.40;;;;;;;-0.96;100.00;98187.53;5028078;28;20052;-67
2022/01/25 08:08:17;;;;;;;77.15;27.73;;;;;;;-1.06;100.00;98199.00;5030724;28;20048;-67
2022/01/25 08:10:43;;;;;;;78.38;26.15;;;;;;;-0.73;100.00;98197.16;5020296;28;20037;-67
2022/01/25 08:13:08;;;;;;;66.25;25.05;;;;;;;-0.54;100.00;98196.75;5014016;28;20037;-66
2022/01/25 08:15:34;;;;;;;73.25;25.80;;;;;;;-0.56;100.00;98196.19;5019940;28;20048;-67
2022/01/25 08:17:59;;;;;;;71.68;24.67;;;;;;;-0.57;100.00;98195.41;5020220;28;20184;-66
2022/01/25 08:20:25;;;;;;;67.18;26.30;;;;;;;-0.72;100.00;98189.88;5015124;28;20054;-67
2022/01/25 08:22:51;;;;;;;72.53;26.65;;;;;;;-0.49;100.00;98199.47;5019394;28;20498;-67
2022/01/25 08:25:17;;;;;;;62.65;25.75;;;;;;;-0.49;100.00;98202.16;5031759;28;20041;-66
2022/01/25 08:27:42;;;;;;;67.38;26.55;;;;;;;-0.60;100.00;98204.78;5039549;28;20053;-66
2022/01/25 08:30:09;;;;;;;68.05;26.05;;;;;;;-0.39;100.00;98199.56;5034774;28;20052;-63
2022/01/25 08:32:35;;;;;;;70.65;25.88;;;;;;;-0.23;100.00;98195.91;5042917;28;20041;-64
2022/01/25 08:35:00;;;;;;;69.70;27.23;;;;;;;-0.26;100.00;98201.00;5041843;28;20067;-68
2022/01/25 08:37:26;;;;;;;69.55;25.92;;;;;;;-0.34;100.00;98198.78;5035132;28;20044;-65
2022/01/25 08:39:52;;;;;;;69.38;26.13;;;;;;;-0.60;100.00;98196.69;5041632;28;20537;-68
2022/01/25 08:42:19;;;;;;;68.18;25.17;;;;;;;-0.41;100.00;98207.09;5035623;28;20569;-65
2022/01/25 08:44:45;;;;;;;69.50;25.10;;;;;;;-0.12;100.00;98204.84;5043584;28;20541;-66
2022/01/25 08:47:11;;;;;;;69.30;25.25;;;;;;;-0.04;100.00;98212.47;5035738;28;20052;-63
2022/01/25 08:49:38;;;;;;;87.10;33.10;;;;;;;-0.13;100.00;98205.91;5046555;28;20045;-67
2022/01/25 08:52:04;;;;;;;66.47;25.13;;;;;;;-0.10;100.00;98201.91;5054336;28;20099;-62
2022/01/25 08:54:33;;;;;;;68.85;26.65;;;;;;;0.08;100.00;98211.44;5057555;28;20041;-64
2022/01/25 08:56:59;;;;;;;73.63;26.93;;;;;;;-0.03;100.00;98205.97;5047708;28;20041;-65
2022/01/25 08:59:24;;;;;;;70.05;26.52;;;;;;;0.19;100.00;98207.72;5037802;28;20319;-64
2022/01/25 09:01:50;;;;;;;73.32;26.20;;;;;;;0.05;100.00;98214.66;5041612;28;20075;-67
2022/01/25 09:04:15;;;;;;;68.88;27.00;;;;;;;0.23;100.00;98211.50;5037088;28;20470;-67
2022/01/25 09:06:41;;;;;;;72.60;26.23;;;;;;;0.26;100.00;98215.56;5043470;28;20047;-67
2022/01/25 09:09:09;;;;;;;68.68;25.75;;;;;;;0.24;100.00;98215.81;5034351;28;20185;-65
2022/01/25 09:11:37;;;;;;;71.90;27.10;;;;;;;0.40;100.00;98211.31;5042013;28;20486;-67
2022/01/25 09:14:03;;;;;;;73.40;26.67;;;;;;;0.35;100.00;98204.00;5042627;28;20110;-64
2022/01/25 09:16:29;;;;;;;70.03;27.02;;;;;;;0.27;100.00;98212.63;5040981;28;20045;-67
2022/01/25 09:18:54;;;;;;;70.85;26.15;;;;;;;0.47;100.00;98216.44;5042364;28;20114;-66
2022/01/25 09:21:19;;;;;;;69.35;26.27;;;;;;;0.45;100.00;98213.22;5034475;28;20048;-66
2022/01/25 09:23:45;;;;;;;72.03;26.40;;;;;;;0.43;100.00;98215.38;5033827;28;20512;-66
2022/01/25 09:26:11;;;;;;;69.88;25.27;;;;;;;0.41;100.00;98210.22;5012979;28;20042;-66
2022/01/25 09:28:36;;;;;;;66.10;25.48;;;;;;;0.22;100.00;98212.59;5022215;28;20041;-66
2022/01/25 09:31:02;;;;;;;75.75;27.95;;;;;;;0.59;100.00;98216.25;5020158;28;20640;-64
2022/01/25 09:33:28;;;;;;;75.03;28.25;;;;;;;0.11;100.00;98213.59;5014978;28;20490;-67
2022/01/25 09:35:55;;;;;;;75.20;27.23;;;;;;;0.17;100.00;98221.44;5025991;28;20045;-67
2022/01/25 09:38:21;;;;;;;73.25;26.95;;;;;;;0.26;100.00;98216.38;5021836;28;20096;-65
2022/01/25 09:40:47;;;;;;;72.05;26.48;;;;;;;0.30;100.00;98230.13;5022209;28;20054;-65
2022/01/25 09:43:12;;;;;;;73.82;28.85;;;;;;;0.35;100.00;98219.38;5019022;28;20065;-66
2022/01/25 09:45:40;;;;;;;73.88;27.73;;;;;;;0.60;100.00;98226.75;5019596;28;20048;-67
2022/01/25 09:48:08;;;;;;;68.57;27.20;;;;;;;0.70;100.00;98234.91;5032459;28;20160;-67
2022/01/25 09:50:35;;;;;;;68.57;28.92;;;;;;;0.38;100.00;98230.44;5021591;28;20044;-67
2022/01/25 09:53:01;;;;;;;77.68;26.85;;;;;;;0.42;100.00;98227.25;5020922;28;20045;-66
2022/01/25 09:55:31;;;;;;;70.68;26.98;;;;;;;0.64;100.00;98230.53;5016922;28;20069;-67
2022/01/25 09:57:56;;;;;;;71.18;27.20;;;;;;;0.98;100.00;98232.81;5021833;28;20052;-67
2022/01/25 10:00:24;;;;;;;80.00;32.15;;;;;;;1.10;99.29;98237.97;5031543;28;20492;-66
2022/01/25 10:02:59;;;;;;;74.07;28.30;;;;;;;1.05;98.25;98237.97;5022236;28;20398;-66
2022/01/25 10:05:34;;;;;;;68.95;26.05;;;;;;;1.08;99.38;98229.31;5013185;28;20429;-67
2022/01/25 10:08:01;;;;;;;64.72;25.95;;;;;;;1.28;97.39;98228.56;5021262;28;20103;-67
2022/01/25 10:10:28;;;;;;;71.70;25.05;;;;;;;1.05;98.46;98233.38;5014907;28;20064;-67
2022/01/25 10:13:23;;;;;;;68.70;26.63;;;;;;;1.06;98.36;98236.88;5041010;28;20097;-66
2022/01/25 10:15:56;;;;;;;62.28;24.48;;;;;;;1.26;97.31;98233.38;5032581;28;20053;-66
2022/01/25 10:18:22;;;;;;;67.20;26.77;;;;;;;1.07;98.22;98230.41;5012965;28;20079;-66
2022/01/25 10:20:50;;;;;;;76.40;27.63;;;;;;;1.01;99.26;98229.59;5023508;28;20046;-67
2022/01/25 10:23:24;;;;;;;72.03;26.63;;;;;;;1.20;97.50;98229.88;5019361;28;20029;-66
2022/01/25 10:25:50;;;;;;;69.57;26.25;;;;;;;0.78;99.71;98230.88;5041220;28;20500;-67
2022/01/25 10:28:23;;;;;;;65.60;26.60;;;;;;;0.64;100.00;98238.63;5031534;28;20404;-66
2022/01/25 10:30:53;;;;;;;70.00;28.70;;;;;;;0.45;100.00;98232.09;5040864;28;20045;-63
2022/01/25 10:33:37;;;;;;;73.90;27.95;;;;;;;0.38;100.00;98235.84;5036481;28;20187;-65
2022/01/25 10:36:11;;;;;;;74.70;27.98;;;;;;;0.44;100.00;98233.19;5037816;28;20037;-64
2022/01/25 10:38:37;;;;;;;69.40;26.38;;;;;;;0.59;100.00;98227.81;5041291;28;20044;-66
2022/01/25 10:41:08;;;;;;;64.82;26.42;;;;;;;0.67;100.00;98227.31;5038479;28;20494;-62
2022/01/25 10:43:35;;;;;;;75.07;28.08;;;;;;;1.13;98.85;98222.06;5041381;28;20037;-67
2022/01/25 10:46:10;;;;;;;67.75;26.13;;;;;;;1.08;96.15;98219.34;5043044;28;20033;-67
2022/01/25 10:48:38;;;;;;;73.45;28.33;;;;;;;1.07;99.33;98219.59;5038641;28;20032;-67
2022/01/25 10:51:15;;;;;;;74.90;26.58;;;;;;;1.26;96.14;98218.03;5037248;28;20041;-64
2022/01/25 10:53:40;;;;;;;69.63;28.35;;;;;;;1.37;95.63;98212.59;5039493;28;20084;-67
2022/01/25 10:56:07;;;;;;;68.47;27.45;;;;;;;1.33;96.14;98213.16;5036157;28;20044;-64
2022/01/25 10:58:40;;;;;;;68.65;27.95;;;;;;;1.25;96.94;98218.28;5041833;28;20048;-65
2022/01/25 11:01:09;;;;;;;68.15;26.95;;;;;;;1.34;98.01;98214.75;5033785;28;20052;-65
2022/01/25 11:03:41;;;;;;;69.53;27.67;;;;;;;1.14;98.56;98207.47;5055865;28;20513;-66
2022/01/25 11:06:18;;;;;;;72.00;27.45;;;;;;;1.25;99.90;98202.88;5035918;28;20114;-66
2022/01/25 11:08:46;;;;;;;66.18;26.40;;;;;;;1.11;99.31;98196.41;5041609;28;20033;-68
2022/01/25 11:11:22;;;;;;;65.65;25.25;;;;;;;0.85;100.00;98195.56;5035264;28;20049;-65
2022/01/25 11:13:49;;;;;;;67.18;25.80;;;;;;;0.79;100.00;98191.22;5041198;28;20366;-66
2022/01/25 11:16:14;;;;;;;73.78;28.00;;;;;;;0.91;100.00;98192.59;5034723;28;20041;-66
2022/01/25 11:18:40;;;;;;;64.07;26.45;;;;;;;1.04;100.00;98190.44;5038725;28;20044;-66
2022/01/25 11:21:08;;;;;;;71.07;27.88;;;;;;;1.11;100.00;98196.41;5033582;28;20473;-66
2022/01/25 11:23:36;;;;;;;74.22;28.30;;;;;;;1.30;99.72;98188.59;5038573;28;20048;-67
2022/01/25 11:26:06;;;;;;;76.80;26.80;;;;;;;1.41;98.22;98181.31;5038753;28;20045;-61
2022/01/25 11:28:33;;;;;;;73.80;28.42;;;;;;;1.21;98.05;98182.13;5039824;28;20069;-65
2022/01/25 11:31:06;;;;;;;74.80;27.08;;;;;;;1.45;96.97;98187.78;5039550;28;20040;-68
2022/01/25 11:33:33;;;;;;;64.65;27.00;;;;;;;1.46;95.98;98179.41;5037524;28;20045;-65
2022/01/25 11:36:00;;;;;;;71.15;26.48;;;;;;;1.61;95.04;98180.47;5038503;28;20037;-67
2022/01/25 11:38:34;;;;;;;70.18;27.95;;;;;;;1.64;95.61;98182.63;5035322;28;20178;-67
2022/01/25 11:41:07;;;;;;;77.88;27.52;;;;;;;1.80;93.94;98183.41;5039863;28;20113;-66
2022/01/25 11:43:32;;;;;;;71.45;27.27;;;;;;;1.81;94.18;98171.53;5041282;28;20119;-65
2022/01/25 11:46:03;;;;;;;64.03;24.77;;;;;;;1.95;94.96;98177.19;5043768;28;20125;-67
2022/01/25 11:48:38;;;;;;;67.85;26.42;;;;;;;1.89;95.70;98169.09;5036335;28;20550;-66
2022/01/25 11:51:11;;;;;;;77.82;31.70;;;;;;;2.23;92.94;98157.63;5034256;28;20045;-63
2022/01/25 11:53:41;;;;;;;69.40;26.85;;;;;;;2.01;91.89;98173.38;5040652;28;20118;-66
2022/01/25 11:56:09;;;;;;;73.15;26.60;;;;;;;1.86;91.50;98160.72;5034613;28;20041;-66
2022/01/25 11:58:35;;;;;;;66.30;25.98;;;;;;;1.88;92.64;98155.84;5038278;28;20037;-66
2022/01/25 12:01:05;;;;;;;76.18;34.33;;;;;;;1.43;95.26;98161.03;5050730;28;20035;-66
2022/01/25 12:03:44;;;;;;;80.72;31.92;;;;;;;1.29;95.73;98159.97;5031780;28;20046;-65
2022/01/25 12:06:28;;;;;;;82.53;30.93;;;;;;;1.66;93.93;98158.88;5016042;28;20136;-65
2022/01/25 12:12:06;;;;;;;68.25;28.08;;;;;;;1.84;92.09;98165.59;5023903;28;20037;-67
2022/01/25 12:14:48;;;;;;;84.68;32.20;;;;;;;1.45;93.38;98160.78;5021634;28;20041;-67
2022/01/25 12:17:16;;;;;;;69.72;26.30;;;;;;;1.81;91.66;98153.44;5017032;28;20042;-65
2022/01/25 12:19:51;;;;;;;77.68;28.30;;;;;;;1.94;92.00;98149.34;5023747;28;20049;-66
2022/01/25 12:22:25;;;;;;;68.10;25.00;;;;;;;2.22;90.42;98139.78;5016529;28;20675;-67
2022/01/25 12:25:07;;;;;;;65.82;25.95;;;;;;;2.44;88.12;98134.00;5039997;28;20068;-65
2022/01/25 12:27:54;;;;;;;68.18;25.38;;;;;;;2.47;87.40;98132.66;5042597;28;20045;-67
2022/01/25 12:30:41;;;;;;;61.92;25.80;;;;;;;2.60;87.40;98133.94;5036679;28;20140;-67
2022/01/25 12:33:23;;;;;;;63.15;26.90;;;;;;;2.62;86.86;98134.47;5035599;28;20385;-65
2022/01/25 12:35:57;;;;;;;59.72;25.58;;;;;;;2.54;87.36;98124.22;5043054;28;20124;-67
2022/01/25 12:38:38;;;;;;;69.00;26.75;;;;;;;2.90;87.10;98132.09;5038001;28;20609;-67
2022/01/25 12:41:17;;;;;;;68.45;26.08;;;;;;;2.75;86.82;98124.91;5038584;28;20126;-64
2022/01/25 12:43:44;;;;;;;68.07;29.52;;;;;;;2.08;89.84;98117.13;5042444;28;20118;-67
2022/01/25 12:46:09;;;;;;;74.47;28.38;;;;;;;1.60;95.05;98117.53;5037718;28;20041;-66
2022/01/25 12:48:40;;;;;;;65.00;26.35;;;;;;;2.09;93.04;98108.75;5043488;28;20044;-65
2022/01/25 12:51:09;;;;;;;67.50;26.73;;;;;;;1.71;93.26;98105.66;5053528;28;20128;-66
2022/01/25 12:53:37;;;;;;;65.80;27.07;;;;;;;1.84;93.35;98115.06;5043605;28;20044;-67
2022/01/25 12:56:10;;;;;;;65.45;27.00;;;;;;;1.83;93.11;98107.22;5041811;28;20044;-64
2022/01/25 12:58:37;;;;;;;61.42;25.88;;;;;;;2.32;90.88;98103.78;5041697;28;20041;-67
2022/01/25 13:01:12;;;;;;;65.28;26.10;;;;;;;2.03;92.40;98099.03;5039883;28;20064;-63
2022/01/25 13:03:47;;;;;;;69.30;29.83;;;;;;;2.32;93.67;98098.38;5041055;28;20142;-66
2022/01/25 13:06:18;;;;;;;62.85;26.13;;;;;;;3.91;82.97;98088.94;5038081;28;20098;-66